createdAt,value
2023-05-10T00:02:01.827Z,3.60
2023-05-10T00:04:28.555Z,3.67
2023-05-10T00:06:55.846Z,2.85
2023-05-10T00:09:22.413Z,3.22
2023-05-10T00:11:48.977Z,3.15
2023-05-10T00:14:15.572Z,3.20
2023-05-10T00:16:42.509Z,2.83
2023-05-10T00:19:09.147Z,2.92
2023-05-10T00:21:35.727Z,3.25
2023-05-10T00:24:03.388Z,2.60
2023-05-10T00:26:29.909Z,2.90
2023-05-10T00:28:56.608Z,2.65
2023-05-10T00:31:23.695Z,2.78
2023-05-10T00:33:50.272Z,2.63
2023-05-10T00:36:16.876Z,2.25
2023-05-10T00:38:43.521Z,2.83
2023-05-10T00:41:10.383Z,2.28
2023-05-10T00:43:36.998Z,1.85
2023-05-10T00:46:04.319Z,2.35
2023-05-10T00:48:31.063Z,2.45
2023-05-10T00:50:57.604Z,2.03
2023-05-10T00:53:25.494Z,1.90
2023-05-10T00:55:52.332Z,1.97
2023-05-10T00:58:19.022Z,2.10
2023-05-10T01:03:50.817Z,2.33
2023-05-10T01:06:17.571Z,2.25
2023-05-10T01:08:44.300Z,2.47
2023-05-10T01:11:11.140Z,2.22
2023-05-10T01:13:40.411Z,2.17
2023-05-10T01:16:07.912Z,2.05
2023-05-10T01:18:37.631Z,2.05
2023-05-10T01:21:13.122Z,2.10
2023-05-10T01:23:46.436Z,2.30
2023-05-10T01:26:31.705Z,2.40
2023-05-10T01:29:14.981Z,1.98
2023-05-10T01:32:03.190Z,2.08
2023-05-10T01:34:42.052Z,2.00
2023-05-10T01:37:43.352Z,2.22
2023-05-10T01:40:27.397Z,2.00
2023-05-10T01:43:00.847Z,1.90
2023-05-10T01:45:40.554Z,1.92
2023-05-10T01:48:11.692Z,2.22
2023-05-10T01:50:44.895Z,2.10
2023-05-10T01:53:14.091Z,2.70
2023-05-10T01:55:53.487Z,2.30
2023-05-10T01:58:24.576Z,2.05
2023-05-10T02:00:53.501Z,1.92
2023-05-10T02:03:24.465Z,2.00
2023-05-10T02:05:52.984Z,2.20
2023-05-10T02:08:21.904Z,2.63
2023-05-10T02:10:51.351Z,2.17
2023-05-10T02:13:19.856Z,2.50
2023-05-10T02:15:49.735Z,2.55
2023-05-10T02:18:17.927Z,2.42
2023-05-10T02:20:47.484Z,2.50
2023-05-10T02:23:16.487Z,2.60
2023-05-10T02:25:44.868Z,2.60
2023-05-10T02:28:13.778Z,2.92
2023-05-10T02:30:41.203Z,2.65
2023-05-10T02:33:08.897Z,1.92
2023-05-10T02:35:37.556Z,2.58
2023-05-10T02:38:07.028Z,2.97
2023-05-10T02:40:34.834Z,3.40
2023-05-10T02:43:03.564Z,2.80
2023-05-10T02:45:32.349Z,2.75
2023-05-10T02:47:59.830Z,2.40
2023-05-10T02:50:29.181Z,3.00
2023-05-10T02:53:07.732Z,2.75
2023-05-10T02:55:39.246Z,2.70
2023-05-10T02:58:05.924Z,2.47
2023-05-10T03:00:32.826Z,2.72
2023-05-10T03:03:04.359Z,2.88
2023-05-10T03:05:31.245Z,2.30
2023-05-10T03:07:57.925Z,2.83
2023-05-10T03:10:31.820Z,2.50
2023-05-10T03:13:18.395Z,2.42
2023-05-10T03:16:08.803Z,2.22
2023-05-10T03:18:54.602Z,3.33
2023-05-10T03:21:26.843Z,2.58
2023-05-10T03:24:24.343Z,2.72
2023-05-10T03:26:52.971Z,2.30
2023-05-10T03:29:21.319Z,2.45
2023-05-10T03:31:48.049Z,2.83
2023-05-10T03:34:14.737Z,2.58
2023-05-10T03:36:41.460Z,3.00
2023-05-10T03:39:07.966Z,3.03
2023-05-10T03:41:34.632Z,2.30
2023-05-10T03:44:01.246Z,2.15
2023-05-10T03:46:28.297Z,3.03
2023-05-10T03:48:54.944Z,2.67
2023-05-10T03:51:21.628Z,3.15
2023-05-10T03:53:48.200Z,2.55
2023-05-10T03:56:14.844Z,2.50
2023-05-10T03:58:41.413Z,2.42
2023-05-10T04:01:08.016Z,3.03
2023-05-10T04:03:36.566Z,2.20
2023-05-10T04:06:03.841Z,2.88
2023-05-10T04:08:30.665Z,2.78
2023-05-10T04:11:10.519Z,2.47
2023-05-10T04:13:37.647Z,2.90
2023-05-10T04:16:04.790Z,2.17
2023-05-10T04:18:32.254Z,2.70
2023-05-10T04:20:58.785Z,2.50
2023-05-10T04:23:25.351Z,2.65
2023-05-10T04:25:51.928Z,2.45
2023-05-10T04:28:18.507Z,2.53
2023-05-10T04:30:45.089Z,2.97
2023-05-10T04:33:11.706Z,2.70
2023-05-10T04:35:38.254Z,2.72
2023-05-10T04:38:04.837Z,2.55
2023-05-10T04:40:31.408Z,2.72
2023-05-10T04:42:58.074Z,2.40
2023-05-10T04:45:24.606Z,2.88
2023-05-10T04:47:51.194Z,2.17
2023-05-10T04:50:18.664Z,2.60
2023-05-10T04:52:45.412Z,2.38
2023-05-10T04:55:11.976Z,2.28
2023-05-10T04:57:38.570Z,1.98
2023-05-10T05:00:05.950Z,2.35
2023-05-10T05:02:32.605Z,2.67
2023-05-10T05:04:59.407Z,2.42
2023-05-10T05:07:26.346Z,2.33
2023-05-10T05:09:53.018Z,2.70
2023-05-10T05:12:19.634Z,2.95
2023-05-10T05:14:46.338Z,3.15
2023-05-10T05:17:13.004Z,2.60
2023-05-10T05:19:39.660Z,2.15
2023-05-10T05:22:08.667Z,2.40
2023-05-10T05:24:39.139Z,2.30
2023-05-10T05:27:06.714Z,2.00
2023-05-10T05:29:33.571Z,2.13
2023-05-10T05:32:00.341Z,2.30
2023-05-10T05:34:27.008Z,1.98
2023-05-10T05:36:53.776Z,1.95
2023-05-10T05:39:20.352Z,2.10
2023-05-10T05:41:47.662Z,2.00
2023-05-10T05:44:14.246Z,2.45
2023-05-10T05:46:40.910Z,2.20
2023-05-10T05:49:07.519Z,2.00
2023-05-10T05:51:34.100Z,2.20
2023-05-10T05:54:00.736Z,2.50
2023-05-10T05:56:27.899Z,2.22
2023-05-10T05:58:54.525Z,1.90
2023-05-10T06:01:21.337Z,2.40
2023-05-10T06:03:48.201Z,1.98
2023-05-10T06:06:15.586Z,1.90
2023-05-10T06:08:42.140Z,1.77
2023-05-10T06:11:08.718Z,2.00
2023-05-10T06:13:36.282Z,1.90
2023-05-10T06:16:03.945Z,1.60
2023-05-10T06:18:30.523Z,2.90
2023-05-10T06:20:57.332Z,1.92
2023-05-10T06:23:24.339Z,1.58
2023-05-10T06:25:50.887Z,2.13
2023-05-10T06:28:17.566Z,1.90
2023-05-10T06:30:44.280Z,1.95
2023-05-10T06:33:11.021Z,2.72
2023-05-10T06:35:37.877Z,2.55
2023-05-10T06:38:04.550Z,2.17
2023-05-10T06:40:31.109Z,1.85
2023-05-10T06:42:57.727Z,1.95
2023-05-10T06:45:24.316Z,2.05
2023-05-10T06:47:50.905Z,1.92
2023-05-10T06:50:17.609Z,2.30
2023-05-10T06:52:44.587Z,2.45
2023-05-10T06:55:11.621Z,2.40
2023-05-10T06:57:38.230Z,2.05
2023-05-10T07:00:05.877Z,1.98
2023-05-10T07:02:32.662Z,2.33
2023-05-10T07:05:00.974Z,2.60
2023-05-10T07:07:42.162Z,2.47
2023-05-10T07:10:09.319Z,2.53
2023-05-10T07:12:35.925Z,2.70
2023-05-10T07:15:02.606Z,1.95
2023-05-10T07:17:29.306Z,2.10
2023-05-10T07:19:55.944Z,2.35
2023-05-10T07:22:22.604Z,2.20
2023-05-10T07:24:49.271Z,2.30
2023-05-10T07:27:15.895Z,2.55
2023-05-10T07:29:42.650Z,3.33
2023-05-10T07:32:09.366Z,2.42
2023-05-10T07:34:36.136Z,2.28
2023-05-10T07:37:02.878Z,2.40
2023-05-10T07:39:29.501Z,2.00
2023-05-10T07:41:56.507Z,2.00
2023-05-10T07:44:23.631Z,1.80
2023-05-10T07:46:50.729Z,1.67
2023-05-10T07:49:17.539Z,2.15
2023-05-10T07:51:44.346Z,2.72
2023-05-10T07:54:10.973Z,2.78
2023-05-10T07:56:37.576Z,2.13
2023-05-10T07:59:05.244Z,2.25
2023-05-10T08:01:35.857Z,2.42
2023-05-10T08:04:02.915Z,2.97
2023-05-10T08:06:31.046Z,2.75
2023-05-10T08:08:58.537Z,1.98
2023-05-10T08:11:25.750Z,2.53
2023-05-10T08:13:52.787Z,2.10
2023-05-10T08:16:19.892Z,2.30
2023-05-10T08:18:47.994Z,2.58
2023-05-10T08:21:15.666Z,2.35
2023-05-10T08:23:42.695Z,2.55
2023-05-10T08:26:09.326Z,2.15
2023-05-10T08:28:36.173Z,2.60
2023-05-10T08:31:02.752Z,2.75
2023-05-10T08:33:29.417Z,2.78
2023-05-10T08:35:55.991Z,2.55
2023-05-10T08:38:22.798Z,2.20
2023-05-10T08:40:51.889Z,2.50
2023-05-10T08:43:19.367Z,2.35
2023-05-10T08:45:47.985Z,2.53
2023-05-10T08:48:15.315Z,2.80
2023-05-10T08:50:42.985Z,2.33
2023-05-10T08:53:14.192Z,2.90
2023-05-10T08:55:43.751Z,2.30
2023-05-10T08:58:10.852Z,2.25
2023-05-10T09:00:40.614Z,2.20
2023-05-10T09:03:08.093Z,2.47
2023-05-10T09:05:34.893Z,2.28
2023-05-10T09:08:01.560Z,2.63
2023-05-10T09:10:29.249Z,3.03
2023-05-10T09:12:59.344Z,2.45
2023-05-10T09:15:26.869Z,2.90
2023-05-10T09:17:53.725Z,2.30
2023-05-10T09:20:20.735Z,2.40
2023-05-10T09:22:47.564Z,3.08
2023-05-10T09:25:16.384Z,2.95
2023-05-10T09:27:47.260Z,2.30
2023-05-10T09:30:26.871Z,2.78
2023-05-10T09:32:54.627Z,2.55
2023-05-10T09:35:25.038Z,2.65
2023-05-10T09:37:54.982Z,2.50
2023-05-10T09:40:26.028Z,2.10
2023-05-10T09:43:00.917Z,2.55
2023-05-10T09:45:32.962Z,2.70
2023-05-10T09:48:01.532Z,2.55
2023-05-10T09:50:28.679Z,2.10
2023-05-10T09:53:04.212Z,1.92
2023-05-10T09:55:45.672Z,2.20
2023-05-10T09:58:15.046Z,2.45
2023-05-10T10:00:44.230Z,2.15
2023-05-10T10:03:19.408Z,2.40
2023-05-10T10:05:47.671Z,2.35
2023-05-10T10:08:15.113Z,2.17
2023-05-10T10:10:42.551Z,2.67
2023-05-10T10:13:09.551Z,2.63
2023-05-10T10:15:36.508Z,2.53
2023-05-10T10:18:05.285Z,2.20
2023-05-10T10:20:32.316Z,2.42
2023-05-10T10:22:59.047Z,2.15
2023-05-10T10:25:26.505Z,2.83
2023-05-10T10:27:53.236Z,1.95
2023-05-10T10:30:43.219Z,2.22
2023-05-10T10:33:29.225Z,2.78
2023-05-10T10:35:58.984Z,2.47
2023-05-10T10:38:25.696Z,2.60
2023-05-10T10:41:13.841Z,2.88
2023-05-10T10:43:40.485Z,2.55
2023-05-10T10:46:10.231Z,2.88
2023-05-10T10:48:37.045Z,2.55
2023-05-10T10:51:04.042Z,2.85
2023-05-10T10:53:30.810Z,2.63
2023-05-10T10:56:11.839Z,2.72
2023-05-10T10:58:39.673Z,2.40
2023-05-10T11:01:19.783Z,2.53
2023-05-10T11:04:01.581Z,2.38
2023-05-10T11:06:36.128Z,2.50
2023-05-10T11:09:10.677Z,2.95
2023-05-10T11:11:59.585Z,3.00
2023-05-10T11:14:26.424Z,2.80
2023-05-10T11:16:53.241Z,3.05
2023-05-10T11:19:20.372Z,2.58
2023-05-10T11:22:13.951Z,3.00
2023-05-10T11:24:40.653Z,2.78
2023-05-10T11:27:07.460Z,3.08
2023-05-10T11:29:34.364Z,2.95
2023-05-10T11:32:01.386Z,2.75
2023-05-10T11:34:34.553Z,2.75
2023-05-10T11:37:01.903Z,2.65
2023-05-10T11:39:30.002Z,2.58
2023-05-10T11:41:56.819Z,2.85
2023-05-10T11:44:23.632Z,2.75
2023-05-10T11:46:50.663Z,2.78
2023-05-10T11:49:17.448Z,2.42
2023-05-10T11:51:44.722Z,2.53
2023-05-10T11:54:12.382Z,2.28
2023-05-10T11:56:40.491Z,2.58
2023-05-10T11:59:08.889Z,2.78
2023-05-10T12:01:36.454Z,2.42
2023-05-10T12:04:03.480Z,2.83
2023-05-10T12:06:33.034Z,2.53
2023-05-10T12:09:00.091Z,2.92
2023-05-10T12:11:28.434Z,2.60
2023-05-10T12:13:56.042Z,2.22
2023-05-10T12:16:23.519Z,3.88
2023-05-10T12:18:54.673Z,2.75
2023-05-10T12:21:22.487Z,2.53
2023-05-10T12:23:53.912Z,2.45
2023-05-10T12:26:25.508Z,2.55
2023-05-10T12:28:52.086Z,2.65
2023-05-10T12:31:18.815Z,3.25
2023-05-10T12:33:47.333Z,2.30
2023-05-10T12:36:15.850Z,3.28
2023-05-10T12:38:44.577Z,3.00
2023-05-10T12:41:13.245Z,2.83
2023-05-10T12:43:40.501Z,3.28
2023-05-10T12:46:12.098Z,3.70
2023-05-10T12:48:40.313Z,3.08
2023-05-10T12:51:10.274Z,3.13
2023-05-10T12:53:37.321Z,3.00
2023-05-10T12:56:03.988Z,3.13
2023-05-10T13:01:03.384Z,2.95
2023-05-10T13:03:30.147Z,3.15
2023-05-10T13:05:56.839Z,2.58
2023-05-10T13:08:23.492Z,2.70
2023-05-10T13:10:50.389Z,3.00
2023-05-10T13:13:16.877Z,2.90
2023-05-10T13:15:43.482Z,2.42
2023-05-10T13:18:10.128Z,2.80
2023-05-10T13:20:36.803Z,3.10
2023-05-10T13:23:03.723Z,2.50
2023-05-10T13:25:30.999Z,3.05
2023-05-10T13:27:57.713Z,3.15
2023-05-10T13:30:24.976Z,3.05
2023-05-10T13:32:51.806Z,3.00
2023-05-10T13:35:18.454Z,2.97
2023-05-10T13:37:45.237Z,2.63
2023-05-10T13:40:11.998Z,3.70
2023-05-10T13:42:38.647Z,2.92
2023-05-10T13:45:06.018Z,3.08
2023-05-10T13:47:32.758Z,2.38
2023-05-10T13:49:59.469Z,2.88
2023-05-10T13:52:26.910Z,2.90
2023-05-10T13:54:55.907Z,2.42
2023-05-10T13:57:24.078Z,2.53
2023-05-10T13:59:51.345Z,3.20
2023-05-10T14:02:18.164Z,2.80
2023-05-10T14:04:44.821Z,3.00
2023-05-10T14:07:11.484Z,3.10
2023-05-10T14:09:37.994Z,2.97
2023-05-10T14:12:04.700Z,3.17
2023-05-10T14:14:31.532Z,2.97
2023-05-10T14:16:58.179Z,2.80
2023-05-10T14:19:24.681Z,3.20
2023-05-10T14:21:53.012Z,3.08
2023-05-10T14:24:19.632Z,3.10
2023-05-10T14:26:46.204Z,3.25
2023-05-10T14:29:12.886Z,3.40
2023-05-10T14:31:41.382Z,3.38
2023-05-10T14:34:07.946Z,4.20
2023-05-10T14:36:34.630Z,3.28
2023-05-10T14:39:01.177Z,3.40
2023-05-10T14:41:27.729Z,3.72
2023-05-10T14:43:54.289Z,3.50
2023-05-10T14:46:21.153Z,4.20
2023-05-10T14:48:47.700Z,3.55
2023-05-10T14:51:14.419Z,4.00
2023-05-10T14:53:41.182Z,3.50
2023-05-10T14:56:08.703Z,3.45
2023-05-10T14:58:35.276Z,3.63
2023-05-10T15:01:02.186Z,3.50
2023-05-10T15:03:29.640Z,3.13
2023-05-10T15:05:58.603Z,3.63
2023-05-10T15:08:25.691Z,3.80
2023-05-10T15:10:52.719Z,3.70
2023-05-10T15:13:19.224Z,3.22
2023-05-10T15:15:45.911Z,3.03
2023-05-10T15:18:12.833Z,3.17
2023-05-10T15:20:39.874Z,2.85
2023-05-10T15:23:06.608Z,3.38
2023-05-10T15:25:35.875Z,2.90
2023-05-10T15:28:03.988Z,3.00
2023-05-10T15:30:30.760Z,3.17
2023-05-10T15:33:00.327Z,3.40
2023-05-10T15:35:27.867Z,3.67
2023-05-10T15:38:01.982Z,4.00
2023-05-10T15:40:29.338Z,4.43
2023-05-10T15:42:55.902Z,3.35
2023-05-10T15:45:22.728Z,3.63
2023-05-10T15:47:49.416Z,3.22
2023-05-10T15:50:17.067Z,3.40
2023-05-10T15:52:43.723Z,3.00
2023-05-10T15:55:13.282Z,3.47
2023-05-10T15:57:41.452Z,3.10
2023-05-10T16:00:12.287Z,2.95
2023-05-10T16:02:40.599Z,3.08
2023-05-10T16:05:08.279Z,6.38
2023-05-10T16:07:34.858Z,3.92
2023-05-10T16:10:04.191Z,3.92
2023-05-10T16:12:31.497Z,2.92
2023-05-10T16:14:58.251Z,3.28
2023-05-10T16:17:25.089Z,3.33
2023-05-10T16:19:52.102Z,3.33
2023-05-10T16:22:18.817Z,3.10
2023-05-10T16:24:45.366Z,2.80
2023-05-10T16:27:13.271Z,3.45
2023-05-10T16:29:39.818Z,3.60
2023-05-10T16:32:07.047Z,4.00
2023-05-10T16:34:33.674Z,3.22
2023-05-10T16:37:00.557Z,2.47
2023-05-10T16:39:27.191Z,2.85
2023-05-10T16:41:53.878Z,2.78
2023-05-10T16:44:21.899Z,2.75
2023-05-10T16:46:49.572Z,2.55
2023-05-10T16:49:16.532Z,3.20
2023-05-10T16:51:43.219Z,2.95
2023-05-10T16:54:09.890Z,2.58
2023-05-10T16:56:36.482Z,2.60
2023-05-10T16:59:03.056Z,2.60
2023-05-10T17:01:30.109Z,2.40
2023-05-10T17:03:56.904Z,3.10
2023-05-10T17:06:23.709Z,2.97
2023-05-10T17:08:50.499Z,2.40
2023-05-10T17:11:17.238Z,1.80
2023-05-10T17:13:43.914Z,1.80
2023-05-10T17:16:10.784Z,2.13
2023-05-10T17:18:37.623Z,2.33
2023-05-10T17:21:04.583Z,2.17
2023-05-10T17:23:31.104Z,2.95
2023-05-10T17:25:59.556Z,5.35
2023-05-10T17:28:27.565Z,2.35
2023-05-10T17:30:58.526Z,2.58
2023-05-10T17:33:25.231Z,5.80
2023-05-10T17:35:52.257Z,2.15
2023-05-10T17:38:18.957Z,2.25
2023-05-10T17:40:45.715Z,2.20
2023-05-10T17:43:12.265Z,2.80
2023-05-10T17:45:38.910Z,2.10
2023-05-10T17:48:05.548Z,2.67
2023-05-10T17:50:33.082Z,2.58
2023-05-10T17:52:59.646Z,2.08
2023-05-10T17:55:27.119Z,2.47
2023-05-10T17:57:54.122Z,2.80
2023-05-10T18:00:21.245Z,2.38
2023-05-10T18:02:48.113Z,3.22
2023-05-10T18:05:15.221Z,2.80
2023-05-10T18:07:42.121Z,2.72
2023-05-10T18:10:11.823Z,2.92
2023-05-10T18:12:38.476Z,3.15
2023-05-10T18:15:05.468Z,3.10
2023-05-10T18:17:33.683Z,2.83
2023-05-10T18:20:00.418Z,3.10
2023-05-10T18:22:27.175Z,2.78
2023-05-10T18:24:53.852Z,2.72
2023-05-10T18:27:20.516Z,3.10
2023-05-10T18:29:47.216Z,3.05
2023-05-10T18:32:13.837Z,3.08
2023-05-10T18:34:40.395Z,3.28
2023-05-10T18:37:08.096Z,1.98
2023-05-10T18:39:34.819Z,2.63
2023-05-10T18:42:01.560Z,3.45
2023-05-10T18:44:29.019Z,2.60
2023-05-10T18:46:55.833Z,2.92
2023-05-10T18:49:22.730Z,2.80
2023-05-10T18:51:49.400Z,2.40
2023-05-10T18:54:16.000Z,3.00
2023-05-10T18:56:45.160Z,2.67
2023-05-10T18:59:12.819Z,2.95
2023-05-10T19:01:42.515Z,2.75
2023-05-10T19:04:09.487Z,2.45
2023-05-10T19:06:36.609Z,2.08
2023-05-10T19:09:04.109Z,2.05
2023-05-10T19:11:34.535Z,3.15
2023-05-10T19:14:02.325Z,2.67
2023-05-10T19:16:30.683Z,2.00
2023-05-10T19:18:58.754Z,2.45
2023-05-10T19:21:32.499Z,2.28
2023-05-10T19:24:01.391Z,2.33
2023-05-10T19:28:58.170Z,2.92
2023-05-10T19:31:26.038Z,1.85
2023-05-10T19:33:53.885Z,2.85
2023-05-10T19:36:21.109Z,3.10
2023-05-10T19:38:49.915Z,3.40
2023-05-10T19:43:44.118Z,3.70
2023-05-10T19:46:10.793Z,3.40
2023-05-10T19:48:39.035Z,4.00
2023-05-10T19:51:08.482Z,3.75
2023-05-10T19:53:36.715Z,3.13
2023-05-10T19:56:08.096Z,3.80
2023-05-10T19:58:35.070Z,4.70
2023-05-10T20:01:01.942Z,4.50
2023-05-10T20:03:29.147Z,5.20
2023-05-10T20:05:57.079Z,5.97
2023-05-10T20:08:24.847Z,5.07
2023-05-10T20:10:51.415Z,6.85
2023-05-10T20:13:18.636Z,4.90
2023-05-10T20:15:47.422Z,5.78
2023-05-10T20:18:15.043Z,5.55
2023-05-10T20:20:42.836Z,5.30
2023-05-10T20:23:10.845Z,5.60
2023-05-10T20:25:38.068Z,6.00
2023-05-10T20:28:06.001Z,5.22
2023-05-10T20:30:32.817Z,5.40
2023-05-10T20:32:59.428Z,5.65
2023-05-10T20:35:26.077Z,6.18
2023-05-10T20:37:52.928Z,6.60
2023-05-10T20:40:20.210Z,6.68
2023-05-10T20:42:47.808Z,6.30
2023-05-10T20:45:14.582Z,7.72
2023-05-10T20:47:41.641Z,8.23
2023-05-10T20:50:09.047Z,8.00
2023-05-10T20:52:35.662Z,9.57
2023-05-10T20:55:03.150Z,9.45
2023-05-10T20:57:30.012Z,8.35
2023-05-10T20:59:57.532Z,9.57
2023-05-10T21:02:24.161Z,9.02
2023-05-10T21:04:52.273Z,10.45
2023-05-10T21:07:18.881Z,10.27
2023-05-10T21:09:45.424Z,10.18
2023-05-10T21:12:12.055Z,10.57
2023-05-10T21:14:39.582Z,9.48
2023-05-10T21:17:06.205Z,9.40
2023-05-10T21:19:32.874Z,9.57
2023-05-10T21:22:00.502Z,9.93
2023-05-10T21:24:27.196Z,10.35
2023-05-10T21:26:53.877Z,10.27
2023-05-10T21:29:20.496Z,8.43
2023-05-10T21:31:47.133Z,10.95
2023-05-10T21:34:14.152Z,10.43
2023-05-10T21:36:40.976Z,11.35
2023-05-10T21:39:07.693Z,11.73
2023-05-10T21:41:34.317Z,10.43
2023-05-10T21:44:00.926Z,12.10
2023-05-10T21:46:27.678Z,11.75
2023-05-10T21:48:54.386Z,11.00
2023-05-10T21:51:21.908Z,9.30
2023-05-10T21:53:48.530Z,12.50
2023-05-10T21:56:15.147Z,11.63
2023-05-10T21:58:41.924Z,11.70
2023-05-10T22:01:08.652Z,10.57
2023-05-10T22:03:35.500Z,11.48
2023-05-10T22:06:02.088Z,10.90
2023-05-10T22:08:28.632Z,11.60
2023-05-10T22:10:55.461Z,10.93
2023-05-10T22:13:21.997Z,12.10
2023-05-10T22:15:48.572Z,11.10
2023-05-10T22:18:15.192Z,10.75
2023-05-10T22:20:45.323Z,9.45
2023-05-10T22:23:12.282Z,8.75
2023-05-10T22:25:39.034Z,9.65
2023-05-10T22:28:05.798Z,8.45
2023-05-10T22:30:33.218Z,8.68
2023-05-10T22:32:59.998Z,9.65
2023-05-10T22:35:26.785Z,8.45
2023-05-10T22:37:53.411Z,8.63
2023-05-10T22:40:20.052Z,9.90
2023-05-10T22:42:46.722Z,7.53
2023-05-10T22:45:13.405Z,8.70
2023-05-10T22:47:40.163Z,9.27
2023-05-10T22:50:07.325Z,8.45
2023-05-10T22:52:33.972Z,7.10
2023-05-10T22:55:00.706Z,7.00
2023-05-10T22:57:27.336Z,7.57
2023-05-10T22:59:53.957Z,7.68
2023-05-10T23:02:20.810Z,6.82
2023-05-10T23:04:47.511Z,6.43
2023-05-10T23:07:14.176Z,7.35
2023-05-10T23:09:40.757Z,7.80
2023-05-10T23:12:07.357Z,5.97
2023-05-10T23:14:33.908Z,6.60
2023-05-10T23:17:00.548Z,7.65
2023-05-10T23:19:27.189Z,6.57
2023-05-10T23:21:53.884Z,7.45
2023-05-10T23:24:20.543Z,6.65
2023-05-10T23:26:47.446Z,7.20
2023-05-10T23:29:14.347Z,7.68
2023-05-10T23:31:45.474Z,8.57
2023-05-10T23:34:12.489Z,7.15
2023-05-10T23:36:39.388Z,7.90
2023-05-10T23:39:06.630Z,7.25
2023-05-10T23:41:33.219Z,8.80
2023-05-10T23:44:00.170Z,8.57
2023-05-10T23:46:26.843Z,7.45
2023-05-10T23:48:53.537Z,8.25
2023-05-10T23:51:20.104Z,8.18
2023-05-10T23:53:46.790Z,8.35
2023-05-10T23:56:13.384Z,7.80
2023-05-10T23:58:40.117Z,7.60
